Time;durP1;ratioP1;P1;durP2;ratioP2;P2;SDS_P1;SDS_P2;PMS_P1;PMS_P2;Temp;Humidity;BMP_temperature;BMP_pressure;BME280_temperature;BME280_humidity;BME280_pressure;Samples;Min_cycle;Max_cycle;Signal;HPM_P1;HPM_P2
2022/07/28 00:00:58;;;;;;;3.77;2.70;;;21.80;43.60;;;;;;5034170;28;20246;-68
2022/07/28 00:03:24;;;;;;;4.33;2.93;;;21.40;43.80;;;;;;5029766;28;20176;-69
2022/07/28 00:05:49;;;;;;;6.83;4.17;;;21.20;42.60;;;;;;5034984;28;20159;-70
2022/07/28 00:08:15;;;;;;;4.40;3.00;;;20.70;42.90;;;;;;5036338;28;20176;-70
2022/07/28 00:10:41;;;;;;;3.63;3.07;;;21.00;45.30;;;;;;5030942;28;20267;-69
2022/07/28 00:13:06;;;;;;;5.67;3.17;;;21.00;44.60;;;;;;5032673;28;20759;-70
2022/07/28 00:15:32;;;;;;;5.63;3.13;;;20.90;44.90;;;;;;5031904;28;20175;-69
2022/07/28 00:17:59;;;;;;;4.63;3.47;;;20.90;45.90;;;;;;5033378;28;20215;-70
2022/07/28 00:20:26;;;;;;;12.13;4.43;;;20.90;58.70;;;;;;5031562;28;20659;-69
2022/07/28 00:22:52;;;;;;;4.37;3.10;;;21.40;48.70;;;;;;5042354;28;20506;-67
2022/07/28 00:25:19;;;;;;;5.80;3.37;;;21.50;48.20;;;;;;5054814;28;20469;-69
2022/07/28 00:27:44;;;;;;;6.20;4.77;;;21.70;49.00;;;;;;5056068;28;20250;-69
2022/07/28 00:30:11;;;;;;;4.63;3.10;;;21.60;49.30;;;;;;5099189;22;20404;-68
2022/07/28 00:32:36;;;;;;;4.13;2.90;;;21.90;49.90;;;;;;4977515;28;20192;-70
2022/07/28 00:35:03;;;;;;;3.23;2.93;;;21.50;48.90;;;;;;5033033;22;20485;-67
2022/07/28 00:37:32;;;;;;;6.47;3.00;;;21.60;50.00;;;;;;5034517;28;20304;-68
2022/07/28 00:39:58;;;;;;;4.93;3.90;;;21.80;50.50;;;;;;5101142;22;20481;-69
2022/07/28 00:42:24;;;;;;;3.90;3.50;;;21.50;50.70;;;;;;5036016;28;20421;-69
2022/07/28 00:44:49;;;;;;;6.87;3.40;;;21.50;51.00;;;;;;5033992;28;20820;-70
2022/07/28 00:47:15;;;;;;;4.23;3.33;;;21.70;51.60;;;;;;5040529;28;20544;-68
2022/07/28 00:49:43;;;;;;;6.60;3.43;;;21.20;66.20;;;;;;5036473;28;20245;-71
2022/07/28 00:52:11;;;;;;;7.67;3.83;;;21.20;52.30;;;;;;5037593;28;20259;-70
2022/07/28 00:54:37;;;;;;;9.17;3.63;;;21.30;53.20;;;;;;5035611;28;20406;-70
2022/07/28 00:57:03;;;;;;;7.83;3.33;;;21.50;54.30;;;;;;5036172;28;20513;-68
2022/07/28 00:59:30;;;;;;;6.40;4.00;;;21.50;55.30;;;;;;5034038;28;20636;-68
2022/07/28 01:01:56;;;;;;;4.40;3.27;;;21.00;54.60;;;;;;5034394;28;20156;-69
2022/07/28 01:04:22;;;;;;;4.00;3.70;;;20.80;56.70;;;;;;5033857;28;20493;-68
2022/07/28 01:07:01;;;;;;;7.27;3.57;;;20.60;55.70;;;;;;5017537;28;20289;-68
2022/07/28 01:09:51;;;;;;;3.87;3.57;;;20.10;56.90;;;;;;5037424;28;20441;-69
2022/07/28 01:12:43;;;;;;;5.00;4.20;;;20.30;59.70;;;;;;5030751;28;20407;-69
2022/07/28 01:15:29;;;;;;;3.63;3.33;;;20.40;60.70;;;;;;5030611;28;20473;-68
2022/07/28 01:18:03;;;;;;;4.77;4.37;;;20.30;62.90;;;;;;5029531;28;20414;-68
2022/07/28 01:20:40;;;;;;;6.13;4.30;;;20.00;64.50;;;;;;5029596;28;20414;-69
2022/07/28 01:23:09;;;;;;;7.20;4.47;;;19.90;66.70;;;;;;5045924;28;20451;-69
2022/07/28 01:26:03;;;;;;;5.03;4.10;;;19.90;69.40;;;;;;5050478;28;20397;-69
2022/07/28 01:28:52;;;;;;;5.10;4.47;;;19.90;72.80;;;;;;5049512;28;20502;-70
2022/07/28 01:31:24;;;;;;;4.40;4.00;;;20.10;75.10;;;;;;5046470;28;20406;-70
2022/07/28 01:33:59;;;;;;;5.30;4.57;;;20.60;76.90;;;;;;5024512;28;20406;-68
2022/07/28 01:36:30;;;;;;;7.00;4.07;;;20.40;78.00;;;;;;5030036;28;20936;-69
2022/07/28 01:38:57;;;;;;;6.77;4.53;;;20.30;78.80;;;;;;5033417;28;20458;-69
2022/07/28 01:41:28;;;;;;;5.53;4.00;;;20.60;80.20;;;;;;5033851;28;20413;-69
2022/07/28 01:44:03;;;;;;;4.87;4.47;;;20.80;82.30;;;;;;5034338;28;20418;-70
2022/07/28 01:46:30;;;;;;;5.90;5.13;;;20.60;83.90;;;;;;5034838;28;20969;-69
2022/07/28 01:48:58;;;;;;;5.77;4.90;;;20.30;85.40;;;;;;5031473;28;20407;-69
2022/07/28 01:51:28;;;;;;;5.77;4.90;;;20.10;85.70;;;;;;5033669;28;20415;-69
2022/07/28 01:53:58;;;;;;;7.03;5.70;;;20.20;87.80;;;;;;5034299;28;20493;-69
2022/07/28 01:56:25;;;;;;;5.50;5.00;;;20.20;90.30;;;;;;5032756;28;21002;-70
2022/07/28 01:58:54;;;;;;;6.30;5.20;;;19.70;90.70;;;;;;5032324;28;20445;-69
2022/07/28 02:01:22;;;;;;;4.97;4.40;;;20.10;92.20;;;;;;5031498;28;20584;-70
2022/07/28 02:03:49;;;;;;;5.30;4.57;;;20.30;93.00;;;;;;5032244;28;20442;-69
2022/07/28 02:06:18;;;;;;;5.20;4.70;;;21.10;93.60;;;;;;5033448;28;20418;-69
2022/07/28 02:08:45;;;;;;;10.90;4.83;;;20.90;93.70;;;;;;5029745;28;20936;-69
2022/07/28 02:13:56;;;;;;;8.00;5.63;;;20.20;94.50;;;;;;5031362;28;20445;-71
2022/07/28 02:16:24;;;;;;;6.40;5.70;;;20.10;95.60;;;;;;5012437;28;20440;-70
2022/07/28 02:18:52;;;;;;;6.37;5.60;;;20.00;95.90;;;;;;5028827;28;20442;-69
2022/07/28 02:21:19;;;;;;;6.13;5.57;;;20.00;97.10;;;;;;5030786;28;20414;-68
2022/07/28 02:23:47;;;;;;;6.53;6.03;;;19.90;97.70;;;;;;5047191;28;20409;-68
2022/07/28 02:26:15;;;;;;;6.57;4.50;;;19.70;98.70;;;;;;5034340;28;20475;-68
2022/07/28 02:28:43;;;;;;;6.50;5.90;;;19.90;99.60;;;;;;5029046;28;20403;-68
2022/07/28 02:31:17;;;;;;;6.53;5.37;;;19.80;99.90;;;;;;5029775;28;20433;-70
2022/07/28 02:33:44;;;;;;;6.03;5.47;;;19.90;99.90;;;;;;5028809;28;20414;-68
2022/07/28 02:36:20;;;;;;;5.93;5.40;;;20.40;99.90;;;;;;5030239;28;20434;-69
2022/07/28 02:38:49;;;;;;;5.20;4.80;;;20.00;99.90;;;;;;5028917;28;20464;-69
2022/07/28 02:41:24;;;;;;;7.43;5.50;;;20.20;99.90;;;;;;5029881;28;20464;-69
2022/07/28 02:43:53;;;;;;;5.90;5.40;;;19.80;99.90;;;;;;5030151;28;20479;-69
2022/07/28 02:46:24;;;;;;;6.33;5.70;;;19.80;99.90;;;;;;5030264;28;20435;-69
2022/07/28 02:48:57;;;;;;;5.60;5.10;;;19.90;99.90;;;;;;5027762;28;20414;-69
2022/07/28 02:51:26;;;;;;;7.90;5.50;;;19.70;99.90;;;;;;5030212;28;20465;-68
2022/07/28 02:53:53;;;;;;;7.57;6.00;;;19.20;99.90;;;;;;5030432;28;20442;-68
2022/07/28 02:56:20;;;;;;;5.90;5.30;;;18.90;99.90;;;;;;5029038;28;20457;-69
2022/07/28 02:58:46;;;;;;;13.60;6.53;;;19.20;99.90;;;;;;5028049;28;20520;-69
2022/07/28 03:01:16;;;;;;;6.20;5.20;;;18.80;99.90;;;;;;5029042;28;20413;-68
2022/07/28 03:03:42;;;;;;;6.60;5.90;;;18.90;99.90;;;;;;5028552;28;20433;-68
2022/07/28 03:06:08;;;;;;;7.00;6.20;;;18.50;99.90;;;;;;5030089;28;20903;-68
2022/07/28 03:08:33;;;;;;;11.53;6.40;;;18.20;99.90;;;;;;5035379;28;20178;-69
2022/07/28 03:11:10;;;;;;;6.40;5.80;;;18.00;99.90;;;;;;5032555;28;20922;-70
2022/07/28 03:13:36;;;;;;;6.47;5.87;;;18.20;99.90;;;;;;5033427;28;20631;-69
2022/07/28 03:16:03;;;;;;;9.57;5.43;;;18.20;99.90;;;;;;5014973;28;20438;-69
2022/07/28 03:18:29;;;;;;;11.00;7.50;;;18.30;99.90;;;;;;5029038;28;21053;-69
2022/07/28 03:21:08;;;;;;;6.90;5.47;;;18.10;99.90;;;;;;5033283;28;20418;-70
2022/07/28 03:23:38;;;;;;;12.30;6.57;;;18.00;99.90;;;;;;5049067;28;20174;-70
2022/07/28 03:26:36;;;;;;;6.00;5.40;;;18.00;99.90;;;;;;5035770;28;20831;-71
2022/07/28 03:29:02;;;;;;;7.20;6.03;;;18.00;99.90;;;;;;5028634;28;20410;-69
2022/07/28 03:31:30;;;;;;;6.60;5.53;;;17.90;99.90;;;;;;5029439;28;20883;-68
2022/07/28 03:33:56;;;;;;;6.50;5.67;;;18.00;99.90;;;;;;5028153;28;20485;-71
2022/07/28 03:36:29;;;;;;;8.07;6.40;;;18.30;99.90;;;;;;5028736;28;21010;-69
2022/07/28 03:39:02;;;;;;;7.83;6.27;;;18.10;99.90;;;;;;5028289;28;20465;-69
2022/07/28 03:41:31;;;;;;;7.43;6.17;;;18.00;99.90;;;;;;5029512;28;20386;-67
2022/07/28 03:43:58;;;;;;;6.87;5.43;;;17.70;99.90;;;;;;5028462;28;20413;-68
2022/07/28 03:46:25;;;;;;;7.23;5.67;;;17.80;99.90;;;;;;5028935;28;20484;-71
2022/07/28 03:48:51;;;;;;;6.93;6.30;;;18.00;99.90;;;;;;5026966;28;20414;-69
2022/07/28 03:51:17;;;;;;;9.43;6.10;;;18.30;99.90;;;;;;5010819;28;20476;-70
2022/07/28 03:53:43;;;;;;;7.30;6.10;;;18.10;99.90;;;;;;5028692;28;20229;-70
2022/07/28 03:56:09;;;;;;;6.90;6.30;;;18.00;99.90;;;;;;5028864;28;20222;-69
2022/07/28 03:58:36;;;;;;;9.13;6.37;;;18.00;99.90;;;;;;5028154;28;20442;-68
2022/07/28 04:01:01;;;;;;;12.90;7.50;;;18.00;99.90;;;;;;5031753;28;20172;-67
2022/07/28 04:03:29;;;;;;;8.30;6.57;;;18.20;99.90;;;;;;5031525;28;20401;-69
2022/07/28 04:05:55;;;;;;;7.43;6.57;;;18.00;99.90;;;;;;5032010;28;20163;-69
2022/07/28 04:08:21;;;;;;;9.07;6.10;;;18.10;99.90;;;;;;5031911;28;20505;-66
2022/07/28 04:10:46;;;;;;;7.10;6.27;;;18.30;99.90;;;;;;5032544;28;20506;-70
2022/07/28 04:13:12;;;;;;;12.03;5.83;;;18.40;99.90;;;;;;5032285;28;20183;-69
2022/07/28 04:15:38;;;;;;;11.73;6.93;;;18.00;99.90;;;;;;5032393;28;20183;-69
2022/07/28 04:18:04;;;;;;;11.20;6.67;;;18.20;99.90;;;;;;5034045;28;20196;-69
2022/07/28 04:20:29;;;;;;;6.90;6.17;;;18.30;99.90;;;;;;5032553;28;20241;-69
2022/07/28 04:22:56;;;;;;;9.90;6.40;;;18.40;99.90;;;;;;5043509;28;20604;-68
2022/07/28 04:25:24;;;;;;;8.67;6.13;;;18.70;99.90;;;;;;5052938;28;20174;-69
2022/07/28 04:27:50;;;;;;;11.17;6.47;;;18.70;99.90;;;;;;5051464;28;20793;-69
2022/07/28 04:30:20;;;;;;;7.07;6.33;;;18.40;99.90;;;;;;5033649;28;20415;-69
2022/07/28 04:32:48;;;;;;;10.70;6.57;;;18.40;99.90;;;;;;5036184;28;20505;-68
2022/07/28 04:35:15;;;;;;;13.00;7.33;;;18.70;99.90;;;;;;5030492;28;20402;-68
2022/07/28 04:37:41;;;;;;;10.23;7.00;;;19.30;99.90;;;;;;5031404;28;20414;-69
2022/07/28 04:40:08;;;;;;;6.90;6.30;;;19.20;99.90;;;;;;5030454;28;20529;-69
2022/07/28 04:42:36;;;;;;;7.67;6.70;;;19.10;99.90;;;;;;5030934;28;20511;-70
2022/07/28 04:45:03;;;;;;;9.63;7.50;;;19.20;99.90;;;;;;5030441;28;20418;-70
2022/07/28 04:47:29;;;;;;;8.30;6.67;;;19.20;99.90;;;;;;5042628;28;20932;-67
2022/07/28 04:49:55;;;;;;;9.83;7.47;;;18.80;99.90;;;;;;5023882;28;20422;-70
2022/07/28 04:52:21;;;;;;;7.83;7.10;;;18.40;99.90;;;;;;5031660;28;20176;-69
2022/07/28 04:54:47;;;;;;;7.20;6.57;;;18.40;99.90;;;;;;5030668;28;20551;-68
2022/07/28 04:57:13;;;;;;;6.57;5.93;;;18.70;99.90;;;;;;5030449;28;20426;-68
2022/07/28 04:59:39;;;;;;;16.63;8.77;;;18.60;99.90;;;;;;5030042;28;20278;-69
2022/07/28 05:02:05;;;;;;;9.13;6.90;;;18.90;99.90;;;;;;5029612;28;20446;-70
2022/07/28 05:04:31;;;;;;;8.80;7.37;;;19.10;99.90;;;;;;5029724;28;20616;-69
2022/07/28 05:06:57;;;;;;;10.40;7.60;;;19.50;99.90;;;;;;5029118;28;20188;-70
2022/07/28 05:09:23;;;;;;;7.57;6.73;;;19.60;99.90;;;;;;5028764;28;20452;-68
2022/07/28 05:11:49;;;;;;;7.47;6.77;;;19.60;99.90;;;;;;5029413;28;20562;-68
2022/07/28 05:14:16;;;;;;;8.33;7.30;;;19.70;99.90;;;;;;5029105;28;20511;-68
2022/07/28 05:16:42;;;;;;;9.37;7.77;;;19.70;99.90;;;;;;5031676;28;20199;-69
2022/07/28 05:19:07;;;;;;;8.73;7.90;;;19.70;99.90;;;;;;5027845;28;20461;-69
2022/07/28 05:21:34;;;;;;;7.73;7.00;;;19.70;99.90;;;;;;5030384;28;20467;-69
2022/07/28 05:23:59;;;;;;;10.50;7.50;;;20.00;99.90;;;;;;5030441;28;20260;-69
2022/07/28 05:26:27;;;;;;;12.70;6.40;;;20.40;99.90;;;;;;5029545;28;20426;-69
2022/07/28 05:28:53;;;;;;;11.93;7.73;;;20.40;99.90;;;;;;5034602;28;20208;-69
2022/07/28 05:31:19;;;;;;;12.47;7.43;;;20.50;99.90;;;;;;5026565;28;20432;-68
2022/07/28 05:33:45;;;;;;;7.60;6.90;;;20.50;99.90;;;;;;5030357;28;20838;-68
2022/07/28 05:36:11;;;;;;;8.13;7.33;;;20.30;99.90;;;;;;5028256;28;20434;-69
2022/07/28 05:38:37;;;;;;;9.00;7.07;;;19.90;99.90;;;;;;5028244;28;20199;-70
2022/07/28 05:41:03;;;;;;;14.80;8.37;;;19.90;99.90;;;;;;5026526;28;20583;-68
2022/07/28 05:43:29;;;;;;;10.40;7.00;;;20.00;99.90;;;;;;5026554;28;20566;-70
2022/07/28 05:45:54;;;;;;;10.38;9.07;;;20.10;99.90;;;;;;5027594;28;20894;-68
2022/07/28 05:48:21;;;;;;;8.03;7.33;;;19.20;99.90;;;;;;5026513;28;20521;-69
2022/07/28 05:50:48;;;;;;;10.47;8.93;;;19.80;99.90;;;;;;5009049;28;20191;-70
2022/07/28 05:53:14;;;;;;;8.33;7.63;;;19.80;99.90;;;;;;5026820;28;20513;-70
2022/07/28 05:55:40;;;;;;;10.20;7.80;;;20.20;99.90;;;;;;5028844;28;20926;-69
2022/07/28 05:58:06;;;;;;;10.20;7.40;;;20.20;99.90;;;;;;5026746;28;20492;-69
2022/07/28 06:00:32;;;;;;;10.43;9.20;;;20.30;99.90;;;;;;5026845;28;20168;-69
2022/07/28 06:03:02;;;;;;;9.53;8.50;;;20.40;99.90;;;;;;5027420;28;20172;-70
2022/07/28 06:05:29;;;;;;;18.60;8.03;;;20.70;99.90;;;;;;5026541;28;20476;-70
2022/07/28 06:07:54;;;;;;;12.10;10.10;;;21.40;99.90;;;;;;5023066;28;20434;-69
2022/07/28 06:10:22;;;;;;;11.53;8.70;;;21.90;99.90;;;;;;5026954;28;20499;-70
2022/07/28 06:12:50;;;;;;;9.10;8.20;;;21.00;99.90;;;;;;5026842;28;20195;-70
2022/07/28 06:15:21;;;;;;;27.17;11.07;;;21.00;99.90;;;;;;5027147;28;20414;-69
2022/07/28 06:17:51;;;;;;;9.73;8.80;;;20.80;99.90;;;;;;5026225;28;20446;-68
2022/07/28 06:20:17;;;;;;;11.47;10.33;;;20.40;99.90;;;;;;5026284;28;20422;-69
2022/07/28 06:22:47;;;;;;;10.70;9.70;;;20.60;99.90;;;;;;5046692;28;20963;-70
2022/07/28 06:25:19;;;;;;;10.97;9.43;;;20.80;99.90;;;;;;5026960;28;20433;-69
2022/07/28 06:27:49;;;;;;;10.60;9.50;;;20.60;99.90;;;;;;5039079;28;20439;-70
2022/07/28 06:30:16;;;;;;;10.80;9.00;;;20.80;99.90;;;;;;5030176;28;20492;-69
2022/07/28 06:32:42;;;;;;;11.20;9.37;;;21.00;99.90;;;;;;5027222;28;20445;-69
2022/07/28 06:35:09;;;;;;;11.23;10.20;;;20.90;99.90;;;;;;5025777;28;20421;-68
2022/07/28 06:37:35;;;;;;;11.30;10.00;;;21.20;99.90;;;;;;5026853;28;20528;-69
2022/07/28 06:40:01;;;;;;;10.87;9.77;;;20.50;99.90;;;;;;5008160;28;21049;-69
2022/07/28 06:42:27;;;;;;;12.40;11.07;;;20.70;99.90;;;;;;5027737;28;20167;-68
2022/07/28 06:44:53;;;;;;;12.70;9.63;;;20.30;99.90;;;;;;5027987;28;20175;-69
2022/07/28 06:47:19;;;;;;;16.93;10.27;;;20.60;99.90;;;;;;5026936;28;20187;-69
2022/07/28 06:49:45;;;;;;;12.23;10.80;;;20.90;99.90;;;;;;5027038;28;20781;-71
2022/07/28 06:52:11;;;;;;;16.53;9.47;;;21.30;99.90;;;;;;5028866;28;20567;-69
2022/07/28 06:54:37;;;;;;;14.67;9.70;;;21.10;99.90;;;;;;5028859;28;20164;-70
2022/07/28 06:57:03;;;;;;;12.63;11.40;;;21.70;99.90;;;;;;5028274;28;20524;-69
2022/07/28 06:59:29;;;;;;;11.40;10.30;;;21.50;99.90;;;;;;5028579;28;20782;-70
2022/07/28 07:02:00;;;;;;;10.83;9.87;;;21.40;99.90;;;;;;5028344;28;20422;-69
2022/07/28 07:04:27;;;;;;;11.83;10.60;;;21.80;99.90;;;;;;5028421;28;20187;-68
2022/07/28 07:06:53;;;;;;;12.90;10.10;;;22.00;99.90;;;;;;5020683;28;20438;-68
2022/07/28 07:09:19;;;;;;;12.57;11.27;;;22.10;99.90;;;;;;5010340;28;20445;-68
2022/07/28 07:11:44;;;;;;;11.67;10.50;;;22.20;99.90;;;;;;5028642;28;20198;-69
2022/07/28 07:14:10;;;;;;;14.73;10.33;;;21.00;99.90;;;;;;5029695;28;20214;-69
2022/07/28 07:16:36;;;;;;;13.27;10.80;;;21.50;99.90;;;;;;5029733;28;20187;-68
2022/07/28 07:19:02;;;;;;;14.27;9.80;;;22.00;99.90;;;;;;5027966;28;20206;-68
2022/07/28 07:21:28;;;;;;;13.87;10.10;;;22.00;99.90;;;;;;5029137;28;20183;-68
2022/07/28 07:23:54;;;;;;;12.10;10.90;;;22.00;99.90;;;;;;5029510;28;20422;-68
2022/07/28 07:26:20;;;;;;;13.13;11.93;;;21.70;99.90;;;;;;5029756;28;20196;-68
2022/07/28 07:28:46;;;;;;;12.13;10.73;;;21.50;99.90;;;;;;5028690;28;20945;-69
2022/07/28 07:31:12;;;;;;;13.43;11.80;;;21.90;99.90;;;;;;5028986;28;20183;-67
2022/07/28 07:33:38;;;;;;;12.37;10.93;;;21.90;99.90;;;;;;5028443;28;20942;-68
2022/07/28 07:36:04;;;;;;;11.87;10.77;;;22.20;99.90;;;;;;5029190;28;20211;-68
2022/07/28 07:38:29;;;;;;;13.60;10.33;;;22.70;99.90;;;;;;5028446;28;20195;-68
2022/07/28 07:40:55;;;;;;;12.57;11.27;;;22.90;99.90;;;;;;5029022;28;20446;-68
2022/07/28 07:43:21;;;;;;;12.07;9.93;;;22.50;99.90;;;;;;5028697;28;20282;-68
2022/07/28 07:45:47;;;;;;;11.27;9.47;;;23.30;99.90;;;;;;5031922;28;20742;-68
2022/07/28 07:48:13;;;;;;;13.13;10.80;;;23.20;99.90;;;;;;5047685;28;20178;-67
2022/07/28 07:50:38;;;;;;;12.10;10.80;;;22.40;99.90;;;;;;5026818;28;20258;-68
2022/07/28 07:53:04;;;;;;;16.00;11.17;;;22.20;99.90;;;;;;5027920;28;20179;-68
2022/07/28 07:55:30;;;;;;;11.53;10.40;;;22.30;99.90;;;;;;5027978;28;20239;-67
2022/07/28 07:57:56;;;;;;;15.67;11.00;;;22.50;99.90;;;;;;5028113;28;20286;-67
2022/07/28 08:00:22;;;;;;;11.90;9.83;;;22.90;99.90;;;;;;5028975;28;20586;-67
2022/07/28 08:02:48;;;;;;;12.27;11.17;;;23.20;99.90;;;;;;5028907;28;20418;-67
2022/07/28 08:05:22;;;;;;;15.50;11.67;;;22.50;99.90;;;;;;5027685;28;20491;-69
2022/07/28 08:07:48;;;;;;;41.23;14.10;;;21.80;99.90;;;;;;5027884;28;20195;-69
2022/07/28 08:10:14;;;;;;;16.13;11.33;;;22.20;99.90;;;;;;5027682;28;20976;-68
2022/07/28 08:12:39;;;;;;;15.10;10.17;;;23.00;99.90;;;;;;5028243;28;20176;-69
2022/07/28 08:15:06;;;;;;;13.03;11.83;;;23.20;99.90;;;;;;5021819;28;20781;-68
2022/07/28 08:17:32;;;;;;;13.23;10.37;;;23.30;99.90;;;;;;5027326;28;20204;-69
2022/07/28 08:19:57;;;;;;;12.40;11.10;;;23.60;99.90;;;;;;5027041;28;20458;-68
2022/07/28 08:22:23;;;;;;;11.53;10.43;;;23.00;99.90;;;;;;5032857;28;20282;-74
2022/07/28 08:24:49;;;;;;;14.17;10.03;;;23.00;99.90;;;;;;5015940;28;20302;-69
2022/07/28 08:27:15;;;;;;;12.43;11.20;;;23.30;99.90;;;;;;5026305;28;20200;-70
2022/07/28 08:29:41;;;;;;;27.00;12.80;;;22.70;99.90;;;;;;5026705;28;20509;-70
2022/07/28 08:32:07;;;;;;;11.37;10.23;;;22.90;99.90;;;;;;5026252;28;20521;-70
2022/07/28 08:34:33;;;;;;;17.50;10.90;;;22.80;99.90;;;;;;5034112;28;20194;-70
2022/07/28 08:37:02;;;;;;;20.23;11.43;;;23.80;99.90;;;;;;5020766;28;20749;-69
2022/07/28 08:39:28;;;;;;;15.00;11.43;;;24.30;99.90;;;;;;5028773;28;20603;-69
2022/07/28 08:41:58;;;;;;;12.07;10.87;;;23.70;99.90;;;;;;5027782;28;20424;-70
2022/07/28 08:44:29;;;;;;;11.97;10.87;;;23.80;99.90;;;;;;5027569;28;20505;-69
2022/07/28 08:46:56;;;;;;;13.53;10.93;;;24.00;99.90;;;;;;5029836;28;20441;-71
2022/07/28 08:49:22;;;;;;;11.63;10.13;;;24.20;99.90;;;;;;5030879;28;20437;-70
2022/07/28 08:51:48;;;;;;;10.93;9.93;;;24.30;99.90;;;;;;5044802;28;20425;-70
2022/07/28 08:54:21;;;;;;;11.07;10.00;;;24.30;99.90;;;;;;5050451;28;20185;-69
2022/07/28 08:56:48;;;;;;;12.97;11.67;;;24.10;99.90;;;;;;5031854;28;20555;-70
2022/07/28 08:59:14;;;;;;;18.60;11.47;;;24.10;99.90;;;;;;5027149;28;20527;-69
2022/07/28 09:01:40;;;;;;;15.07;11.20;;;24.20;99.90;;;;;;5030793;28;20414;-69
2022/07/28 09:04:07;;;;;;;48.00;15.27;;;24.10;99.90;;;;;;5030356;28;20906;-70
2022/07/28 09:06:34;;;;;;;13.27;10.70;;;24.30;99.90;;;;;;5030414;28;20188;-71
2022/07/28 09:08:59;;;;;;;17.07;10.93;;;24.30;99.90;;;;;;5029730;28;20501;-71
2022/07/28 09:11:28;;;;;;;12.63;10.30;;;24.30;99.90;;;;;;5030249;28;20525;-69
2022/07/28 09:13:54;;;;;;;12.30;10.80;;;24.50;99.90;;;;;;5030118;28;20687;-69
2022/07/28 09:16:21;;;;;;;30.43;13.50;;;24.10;99.90;;;;;;5031337;28;20442;-68
2022/07/28 09:18:46;;;;;;;13.10;11.77;;;24.50;99.90;;;;;;5028926;28;20196;-68
2022/07/28 09:21:14;;;;;;;15.10;11.27;;;24.00;99.90;;;;;;5030420;28;20429;-68
2022/07/28 09:23:47;;;;;;;20.00;12.27;;;24.20;99.90;;;;;;5030123;28;20171;-69
2022/07/28 09:26:15;;;;;;;11.67;10.50;;;24.60;99.90;;;;;;5030422;28;20541;-69
2022/07/28 09:28:57;;;;;;;11.13;9.77;;;24.50;99.90;;;;;;5029486;28;20454;-69
2022/07/28 09:31:25;;;;;;;16.47;10.43;;;24.70;99.90;;;;;;5025822;28;20422;-70
2022/07/28 09:33:55;;;;;;;12.13;10.87;;;24.90;99.90;;;;;;5029977;28;20448;-68
2022/07/28 09:36:21;;;;;;;12.10;10.90;;;24.70;99.90;;;;;;5030453;28;20458;-69
2022/07/28 09:38:47;;;;;;;13.53;10.03;;;24.90;99.90;;;;;;5028336;28;20461;-70
2022/07/28 09:41:13;;;;;;;10.43;9.50;;;24.80;99.90;;;;;;5028530;28;20176;-70
2022/07/28 09:43:42;;;;;;;14.37;10.47;;;24.70;99.90;;;;;;5029835;28;20401;-71
2022/07/28 09:46:10;;;;;;;10.90;9.80;;;24.80;99.90;;;;;;5028416;28;20456;-70
2022/07/28 09:48:48;;;;;;;11.90;10.03;;;24.70;99.90;;;;;;5028915;28;20418;-71
2022/07/28 09:51:24;;;;;;;11.37;10.07;;;24.70;99.90;;;;;;5030536;28;20513;-70
2022/07/28 09:53:52;;;;;;;10.87;9.03;;;24.30;99.90;;;;;;5029181;28;20438;-71
2022/07/28 09:56:18;;;;;;;12.33;10.93;;;24.80;99.90;;;;;;5029441;28;20509;-69
2022/07/28 09:58:58;;;;;;;19.40;10.10;;;25.00;99.90;;;;;;5028542;28;20480;-70
2022/07/28 10:01:25;;;;;;;12.60;9.83;;;25.10;99.90;;;;;;5030474;28;20552;-70
2022/07/28 10:03:57;;;;;;;10.70;9.60;;;25.40;99.90;;;;;;5029185;28;21014;-71
2022/07/28 10:06:40;;;;;;;10.63;9.47;;;25.30;99.90;;;;;;5029496;28;20442;-70
2022/07/28 10:09:06;;;;;;;11.07;9.60;;;25.40;99.90;;;;;;5029093;28;20441;-67
2022/07/28 10:11:32;;;;;;;10.37;9.33;;;25.30;99.90;;;;;;5029534;28;20957;-69
2022/07/28 10:13:59;;;;;;;17.30;9.53;;;25.50;99.90;;;;;;5029156;28;20426;-69
2022/07/28 10:16:27;;;;;;;11.30;9.07;;;25.70;99.90;;;;;;5053818;22;20636;-67
2022/07/28 10:18:54;;;;;;;13.00;10.40;;;25.50;99.90;;;;;;5027344;28;20841;-67
2022/07/28 10:21:22;;;;;;;9.70;8.90;;;25.80;99.90;;;;;;5028166;28;20504;-66
2022/07/28 10:23:51;;;;;;;12.13;10.50;;;25.80;99.90;;;;;;5023170;28;20422;-66
2022/07/28 10:26:19;;;;;;;11.47;9.20;;;25.70;99.90;;;;;;5023726;28;20414;-66
2022/07/28 10:28:49;;;;;;;16.33;9.10;;;25.70;99.90;;;;;;5027711;28;20445;-66
2022/07/28 10:31:34;;;;;;;11.10;9.20;;;26.10;99.90;;;;;;5022702;28;20442;-66
2022/07/28 10:34:02;;;;;;;11.40;8.97;;;25.90;99.90;;;;;;5026254;28;20418;-66
2022/07/28 10:36:30;;;;;;;14.80;9.67;;;25.90;99.90;;;;;;5023127;28;20516;-67
2022/07/28 10:39:04;;;;;;;15.20;9.33;;;25.70;99.90;;;;;;5027933;28;20472;-67
2022/07/28 10:41:39;;;;;;;11.77;8.87;;;25.40;99.90;;;;;;5028611;28;20509;-66
2022/07/28 10:44:06;;;;;;;10.07;9.10;;;25.30;99.90;;;;;;5025662;28;20413;-66
2022/07/28 10:46:31;;;;;;;13.63;9.43;;;25.40;99.90;;;;;;5027896;28;20434;-65
2022/07/28 10:48:59;;;;;;;10.00;9.00;;;25.30;99.90;;;;;;5026497;28;20780;-65
2022/07/28 10:51:26;;;;;;;11.73;8.30;;;25.30;99.90;;;;;;5029351;28;20254;-64
2022/07/28 10:54:17;;;;;;;9.80;9.00;;;25.30;99.90;;;;;;5028054;28;20444;-67
2022/07/28 10:56:52;;;;;;;9.57;8.87;;;25.50;99.90;;;;;;5025139;28;20871;-68
2022/07/28 10:59:47;;;;;;;9.83;8.83;;;25.80;99.90;;;;;;5021899;28;20528;-68
2022/07/28 11:02:51;;;;;;;9.27;8.37;;;26.10;99.90;;;;;;5024288;28;20426;-66
2022/07/28 11:05:37;;;;;;;8.83;7.70;;;25.70;99.90;;;;;;5026684;28;20481;-69
2022/07/28 11:08:27;;;;;;;8.17;7.47;;;25.60;99.90;;;;;;5010337;28;20814;-66
2022/07/28 11:10:54;;;;;;;8.13;7.43;;;25.70;99.90;;;;;;5011587;28;20498;-68
2022/07/28 11:13:29;;;;;;;9.40;8.50;;;26.00;98.40;;;;;;5007315;28;20426;-68
2022/07/28 11:16:15;;;;;;;10.13;8.40;;;26.00;97.60;;;;;;5025386;28;20509;-68
2022/07/28 11:19:06;;;;;;;8.67;7.97;;;26.00;98.00;;;;;;5017656;28;20465;-68
2022/07/28 11:21:33;;;;;;;21.20;9.57;;;26.00;97.00;;;;;;5028106;28;20443;-67
2022/07/28 11:23:59;;;;;;;8.23;7.43;;;26.10;96.60;;;;;;5030296;28;20410;-68
2022/07/28 11:26:34;;;;;;;10.60;7.67;;;26.40;95.50;;;;;;5028116;28;20495;-69
2022/07/28 11:29:02;;;;;;;7.57;6.87;;;26.50;94.00;;;;;;5030210;28;20421;-68
2022/07/28 11:31:43;;;;;;;8.33;7.63;;;26.50;92.80;;;;;;5026406;28;20471;-69
2022/07/28 11:34:09;;;;;;;10.07;8.50;;;26.00;92.10;;;;;;5025340;28;20432;-66
2022/07/28 11:37:02;;;;;;;9.23;7.43;;;26.00;92.10;;;;;;5009133;28;20530;-67
2022/07/28 11:39:32;;;;;;;9.00;7.60;;;26.40;92.90;;;;;;5021444;28;20448;-69
2022/07/28 11:41:59;;;;;;;10.73;7.60;;;26.50;92.40;;;;;;5027243;28;20457;-68
2022/07/28 11:44:29;;;;;;;8.63;7.77;;;26.50;90.90;;;;;;5027028;28;20410;-65
2022/07/28 11:47:15;;;;;;;11.83;8.23;;;26.50;89.60;;;;;;5026388;28;20869;-67
2022/07/28 11:49:41;;;;;;;9.80;7.43;;;26.30;86.40;;;;;;5022057;28;20504;-67
2022/07/28 11:52:25;;;;;;;8.60;7.07;;;26.30;86.30;;;;;;5026131;28;20414;-68
2022/07/28 11:54:53;;;;;;;7.77;6.97;;;26.30;85.10;;;;;;5022646;28;20468;-68
2022/07/28 11:57:22;;;;;;;7.83;6.70;;;26.40;84.80;;;;;;5026619;28;20448;-68
2022/07/28 11:59:52;;;;;;;9.23;6.80;;;26.50;80.10;;;;;;5026650;28;20442;-68
2022/07/28 12:02:20;;;;;;;6.73;6.13;;;26.50;75.80;;;;;;5032602;28;20918;-68
2022/07/28 12:04:57;;;;;;;8.07;7.27;;;26.40;74.30;;;;;;5026179;28;20426;-67
2022/07/28 12:07:29;;;;;;;11.13;7.60;;;26.30;77.10;;;;;;5020833;28;20507;-67
2022/07/28 12:09:55;;;;;;;9.53;6.90;;;26.30;76.80;;;;;;5026718;28;20444;-67
2022/07/28 12:12:21;;;;;;;10.17;7.00;;;26.30;75.80;;;;;;5027621;28;20477;-67
2022/07/28 12:14:47;;;;;;;7.10;6.40;;;26.30;73.20;;;;;;5025440;28;20207;-67
2022/07/28 12:17:13;;;;;;;7.13;6.53;;;26.50;71.80;;;;;;5026356;28;20222;-67
2022/07/28 12:19:39;;;;;;;7.93;5.90;;;26.50;69.10;;;;;;5025578;28;20195;-66
2022/07/28 12:22:10;;;;;;;8.27;6.70;;;26.60;69.50;;;;;;5028280;28;21189;-67
2022/07/28 12:24:36;;;;;;;9.23;6.40;;;27.00;69.70;;;;;;5030898;28;20670;-67
2022/07/28 12:27:03;;;;;;;6.97;6.27;;;26.90;69.20;;;;;;5030807;28;20429;-66
2022/07/28 12:29:32;;;;;;;7.17;6.13;;;27.00;67.60;;;;;;5029671;28;20464;-68
2022/07/28 12:32:01;;;;;;;11.30;6.63;;;27.00;64.80;;;;;;5029540;28;20591;-67
2022/07/28 12:34:28;;;;;;;8.87;5.93;;;27.20;61.10;;;;;;5028577;28;20417;-67
2022/07/28 12:36:55;;;;;;;8.93;5.90;;;26.90;58.10;;;;;;5029717;28;20877;-67
2022/07/28 12:39:24;;;;;;;6.80;6.03;;;27.00;57.30;;;;;;5030654;28;20815;-66
2022/07/28 12:42:08;;;;;;;6.60;6.00;;;27.20;57.50;;;;;;5030835;28;20413;-66
2022/07/28 12:44:39;;;;;;;8.10;6.17;;;27.40;56.60;;;;;;5025382;28;20417;-65
2022/07/28 12:47:07;;;;;;;7.53;6.57;;;27.10;55.70;;;;;;5030489;28;20437;-67
2022/07/28 12:49:34;;;;;;;9.30;6.27;;;27.20;56.10;;;;;;5029632;28;20428;-65
2022/07/28 12:52:20;;;;;;;6.67;5.60;;;27.30;55.60;;;;;;5030118;28;20900;-63